Αρχική σελίδα
METAR-TAF:

METAR-TAF

Αεροδρόμια :

Bobo-Dioulasso, Μπουρκίνα Φάσο

γεωγραφικό πλάτος: 11-10N, γεωγραφικό μήκος: 004-19W, υψόμετρο: 460 μ

Παρών καιρός

Η αναφορά έγινε 30 λεπτά πριν, στις 12:00 UTC
Άνεμος 11 kt από BA, μεταβλητός μεταξύ Β και Α
Θερμοκρασία 31°C
Υγρασία 13%
Πίεση 1017 hPa
Ορατότητα 10 χλμ και άνω
Δεν υπάρχουν νέφη με βάση κάτω από τα 1500 μ. και δεν υπάρχουν νέφη σωρειτομελανίτες.

METAR: DFOO 161200Z 05011KT 010V080 CAVOK 31/M01 Q1017

Χρόνος: 12:30 (12:30 UTC)

Πρόγνωση Καιρού

Η αναφορά έγινε 10 λεπτά πριν, στις 12:20 UTC
Η πρόγνωση ισχύει από τις 16 στις 12 UTC έως τις 17 στις 12 UTC
Άνεμος 10 kt από Β/BA
Ορατότητα: 8000 μ
Προσωρινά
από 17 στις 06 UTC έως τις 17 στις 10 UTC
Ορατότητα: 4000 μ
καταχνιά

TAF: DFOO 161220Z 1612/1712 02010KT 8000 NSC TEMPO 1706/1710 4000 HZ

Μετεωρολογικές αναφορές και προγνώσεις για περισσότερα από 4000 αεροδρόμια (δελτία METAR και TAF).

Οι διαθέσιμοι σταθμοί απεικονίζονται στο χάρτη με κίτρινες και κόκκινες κουκκίδες.

Μετακινήστε το ποντίκι πάνω από τις κουκκίδες για να δείτε το όνομα του σταθμού.

Στη συνέχεια, κάντε κλικ για να δείτε τις μετεωρολογικές αναφορές και τις προγνώσεις καιρού.

Για να αλλάξετε το χάρτη: κάντε κλικ στα πράσινα κουμπιά με τον μαύρο σταυρό για να ζουμάρετε, στο πράσινο κουμπί με την παύλα για να αφαιρέσετε το ζουμ ή στα πράσινα βέλη για να αντιπαραβάλλετε χάρτες.


METAR-TAF: